createdAt,value
2023-05-11T00:00:36.394Z,11.00
2023-05-11T00:03:03.488Z,11.10
2023-05-11T00:05:30.554Z,11.10
2023-05-11T00:07:57.439Z,11.00
2023-05-11T00:10:24.318Z,11.00
2023-05-11T00:12:51.162Z,11.00
2023-05-11T00:15:18.017Z,11.00
2023-05-11T00:17:45.533Z,11.00
2023-05-11T00:20:12.507Z,11.00
2023-05-11T00:22:39.336Z,11.00
2023-05-11T00:25:07.087Z,11.00
2023-05-11T00:27:34.204Z,11.00
2023-05-11T00:30:01.073Z,11.00
2023-05-11T00:32:27.904Z,11.00
2023-05-11T00:34:54.739Z,11.00
2023-05-11T00:37:21.486Z,10.90
2023-05-11T00:39:48.584Z,11.00
2023-05-11T00:42:15.378Z,11.00
2023-05-11T00:44:42.210Z,11.00
2023-05-11T00:47:09.564Z,11.00
2023-05-11T00:49:36.406Z,10.90
2023-05-11T00:52:03.427Z,10.90
2023-05-11T00:54:31.682Z,11.00
2023-05-11T00:56:58.513Z,11.00
2023-05-11T00:59:25.506Z,10.90
2023-05-11T01:01:52.401Z,10.90
2023-05-11T01:04:19.504Z,10.90
2023-05-11T01:07:08.929Z,10.90
2023-05-11T01:10:00.827Z,10.90
2023-05-11T01:12:46.483Z,10.90
2023-05-11T01:15:18.804Z,10.90
2023-05-11T01:18:00.200Z,11.00
2023-05-11T01:20:29.474Z,10.90
2023-05-11T01:22:59.605Z,10.90
2023-05-11T01:25:32.905Z,10.90
2023-05-11T01:28:30.740Z,11.00
2023-05-11T01:31:07.646Z,10.90
2023-05-11T01:33:37.395Z,11.00
2023-05-11T01:36:08.844Z,11.00
2023-05-11T01:38:38.710Z,11.00
2023-05-11T01:41:16.316Z,11.00
2023-05-11T01:43:45.558Z,10.90
2023-05-11T01:46:14.077Z,11.00
2023-05-11T01:48:46.784Z,10.90
2023-05-11T01:51:16.008Z,10.90
2023-05-11T01:53:44.739Z,11.00
2023-05-11T01:56:12.689Z,11.00
2023-05-11T01:58:41.765Z,11.00
2023-05-11T02:01:09.476Z,11.00
2023-05-11T02:03:38.039Z,11.00
2023-05-11T02:06:06.905Z,11.00
2023-05-11T02:08:34.213Z,11.10
2023-05-11T02:11:03.600Z,11.00
2023-05-11T02:13:32.298Z,11.00
2023-05-11T02:16:00.877Z,11.00
2023-05-11T02:18:29.450Z,11.00
2023-05-11T02:20:58.082Z,11.00
2023-05-11T02:23:27.700Z,11.00
2023-05-11T02:25:55.910Z,11.00
2023-05-11T02:28:22.908Z,11.00
2023-05-11T02:30:53.266Z,11.00
2023-05-11T02:33:25.649Z,11.00
2023-05-11T02:35:55.564Z,11.00
2023-05-11T02:38:30.178Z,11.00
2023-05-11T02:41:02.450Z,11.00
2023-05-11T02:43:33.094Z,11.00
2023-05-11T02:46:03.922Z,11.00
2023-05-11T02:48:40.196Z,11.00
2023-05-11T02:51:10.165Z,11.10
2023-05-11T02:53:39.934Z,11.10
2023-05-11T02:56:08.331Z,11.10
2023-05-11T02:58:35.824Z,11.10
2023-05-11T04:01:39.970Z,10.80
2023-05-11T04:04:06.808Z,10.90
2023-05-11T04:06:33.817Z,10.90
2023-05-11T04:09:00.780Z,10.80
2023-05-11T04:11:27.700Z,10.80
2023-05-11T04:13:54.436Z,10.80
2023-05-11T04:16:21.227Z,10.90
2023-05-11T04:18:48.481Z,10.90
2023-05-11T04:21:15.326Z,10.90
2023-05-11T04:23:42.208Z,10.80
2023-05-11T04:26:08.959Z,10.80
2023-05-11T04:28:35.765Z,10.80
2023-05-11T04:31:03.003Z,10.90
2023-05-11T04:33:29.830Z,10.80
2023-05-11T04:35:58.691Z,10.80
2023-05-11T04:38:25.782Z,10.80
2023-05-11T04:40:52.549Z,10.80
2023-05-11T04:43:19.290Z,10.80
2023-05-11T04:45:50.304Z,10.90
2023-05-11T04:48:20.360Z,10.80
2023-05-11T04:50:47.664Z,10.80
2023-05-11T04:53:14.869Z,10.80
2023-05-11T04:55:41.664Z,10.80
2023-05-11T04:58:08.496Z,10.90
2023-05-11T05:00:36.503Z,10.90
2023-05-11T05:03:03.904Z,10.90
2023-05-11T05:05:31.188Z,10.90
2023-05-11T05:07:57.954Z,10.90
2023-05-11T05:10:24.856Z,10.90
2023-05-11T05:12:51.669Z,10.90
2023-05-11T05:15:18.424Z,10.90
2023-05-11T05:17:45.540Z,10.90
2023-05-11T05:20:12.595Z,10.90
2023-05-11T05:22:39.513Z,10.90
2023-05-11T05:25:09.288Z,10.90
2023-05-11T05:27:36.332Z,10.90
2023-05-11T05:30:03.552Z,10.90
2023-05-11T05:32:30.615Z,10.90
2023-05-11T05:34:57.492Z,11.00
2023-05-11T05:37:24.396Z,11.10
2023-05-11T05:39:51.221Z,11.00
2023-05-11T05:42:18.233Z,11.10
2023-05-11T05:44:45.132Z,11.10
2023-05-11T05:47:12.040Z,11.20
2023-05-11T05:49:38.923Z,11.20
2023-05-11T05:52:05.984Z,11.20
2023-05-11T05:54:32.766Z,11.20
2023-05-11T05:56:59.575Z,11.20
2023-05-11T05:59:26.296Z,11.20
2023-05-11T06:01:53.098Z,11.20
2023-05-11T06:04:19.986Z,11.20
2023-05-11T06:06:47.285Z,11.20
2023-05-11T06:09:14.090Z,11.30
2023-05-11T06:11:41.272Z,11.30
2023-05-11T06:14:08.208Z,11.30
2023-05-11T06:16:35.089Z,11.20
2023-05-11T06:19:02.107Z,11.30
2023-05-11T06:21:28.895Z,11.30
2023-05-11T06:23:55.687Z,11.40
2023-05-11T06:26:25.219Z,11.40
2023-05-11T06:28:52.751Z,11.40
2023-05-11T06:31:19.812Z,11.30
2023-05-11T06:33:46.733Z,11.40
2023-05-11T06:36:13.501Z,11.40
2023-05-11T06:38:40.312Z,11.40
2023-05-11T06:41:07.692Z,11.40
2023-05-11T06:43:34.446Z,11.40
2023-05-11T06:46:01.382Z,11.30
2023-05-11T06:48:29.841Z,11.30
2023-05-11T06:50:57.104Z,11.30
2023-05-11T06:53:23.974Z,11.40
2023-05-11T06:55:50.776Z,11.40
2023-05-11T06:58:20.640Z,11.40
2023-05-11T07:00:47.601Z,11.30
2023-05-11T07:03:14.393Z,11.20
2023-05-11T07:05:41.293Z,11.20
2023-05-11T07:08:08.099Z,11.20
2023-05-11T07:10:34.878Z,11.20
2023-05-11T07:13:01.698Z,11.30
2023-05-11T07:15:28.530Z,11.40
2023-05-11T07:17:55.419Z,11.50
2023-05-11T07:20:22.397Z,11.50
2023-05-11T07:22:49.188Z,11.60
2023-05-11T07:25:16.139Z,11.60
2023-05-11T07:27:42.970Z,11.60
2023-05-11T07:30:10.166Z,11.70
2023-05-11T07:32:37.022Z,11.60
2023-05-11T07:35:03.936Z,11.60
2023-05-11T07:37:30.693Z,11.60
2023-05-11T07:39:57.499Z,11.80
2023-05-11T07:42:24.360Z,11.90
2023-05-11T07:44:51.101Z,11.90
2023-05-11T07:47:20.745Z,12.00
2023-05-11T07:49:47.844Z,11.80
2023-05-11T07:52:14.937Z,11.80
2023-05-11T07:54:41.786Z,11.80
2023-05-11T07:57:09.112Z,11.90
2023-05-11T07:59:36.599Z,11.90
2023-05-11T08:02:05.921Z,12.00
2023-05-11T08:04:33.131Z,12.20
2023-05-11T08:06:59.966Z,12.10
2023-05-11T08:09:27.244Z,12.20
2023-05-11T08:11:56.532Z,12.20
2023-05-11T08:14:24.441Z,12.20
2023-05-11T08:16:51.260Z,12.30
2023-05-11T08:19:18.182Z,12.20
2023-05-11T08:21:46.401Z,12.20
2023-05-11T08:24:13.444Z,12.30
2023-05-11T08:26:40.351Z,12.40
2023-05-11T08:29:07.872Z,12.40
2023-05-11T08:31:34.782Z,12.40
2023-05-11T08:34:03.054Z,12.20
2023-05-11T08:36:30.063Z,12.20
2023-05-11T08:38:59.003Z,12.20
2023-05-11T08:41:26.372Z,12.40
2023-05-11T08:43:55.165Z,12.40
2023-05-11T08:46:24.512Z,12.50
2023-05-11T08:48:51.749Z,12.60
2023-05-11T08:51:19.482Z,12.70
2023-05-11T08:53:47.063Z,12.90
2023-05-11T08:56:16.867Z,12.80
2023-05-11T08:58:44.805Z,12.90
2023-05-11T09:01:12.748Z,13.00
2023-05-11T09:03:41.421Z,13.00
2023-05-11T09:06:09.916Z,13.10
2023-05-11T09:08:38.743Z,13.00
2023-05-11T09:11:06.736Z,13.00
2023-05-11T09:13:34.452Z,13.00
2023-05-11T09:16:01.426Z,12.90
2023-05-11T09:18:28.868Z,12.80
2023-05-11T09:20:55.711Z,12.70
2023-05-11T09:23:27.451Z,12.60
2023-05-11T09:25:54.847Z,12.60
2023-05-11T09:28:25.766Z,12.70
2023-05-11T09:30:53.561Z,12.80
2023-05-11T09:33:24.086Z,12.80
2023-05-11T09:35:51.090Z,12.80
2023-05-11T09:38:19.994Z,12.70
2023-05-11T09:40:53.586Z,12.70
2023-05-11T09:43:23.244Z,12.60
2023-05-11T09:45:52.340Z,12.50
2023-05-11T09:48:20.569Z,12.40
2023-05-11T09:50:48.825Z,12.20
2023-05-11T09:53:16.020Z,12.20
2023-05-11T09:55:57.970Z,12.10
2023-05-11T09:58:24.777Z,12.20
2023-05-11T10:00:52.848Z,12.20
2023-05-11T10:03:20.479Z,12.20
2023-05-11T10:06:02.669Z,12.20
2023-05-11T10:08:31.104Z,12.30
2023-05-11T10:10:58.389Z,12.30
2023-05-11T10:13:26.468Z,12.30
2023-05-11T10:15:54.766Z,12.40
2023-05-11T10:18:21.710Z,12.40
2023-05-11T10:20:48.697Z,12.40
2023-05-11T10:23:17.755Z,12.60
2023-05-11T10:25:45.234Z,12.60
2023-05-11T10:28:12.115Z,12.70
2023-05-11T10:30:39.454Z,12.60
2023-05-11T10:33:06.898Z,12.80
2023-05-11T10:35:34.027Z,12.70
2023-05-11T10:38:01.579Z,12.80
2023-05-11T10:40:29.026Z,12.90
2023-05-11T10:43:19.646Z,12.80
2023-05-11T10:46:17.603Z,12.90
2023-05-11T10:48:52.680Z,12.90
2023-05-11T10:51:37.924Z,12.90
2023-05-11T10:54:12.688Z,13.10
2023-05-11T10:56:54.889Z,13.10
2023-05-11T10:59:52.440Z,13.00
2023-05-11T11:02:20.305Z,13.10
2023-05-11T11:04:51.793Z,13.20
2023-05-11T11:07:19.698Z,13.30
2023-05-11T11:10:00.720Z,13.60
2023-05-11T11:12:29.658Z,13.80
2023-05-11T11:14:59.552Z,13.90
2023-05-11T11:17:31.449Z,13.90
2023-05-11T11:20:01.680Z,13.80
2023-05-11T11:22:36.636Z,13.80
2023-05-11T11:25:06.576Z,13.70
2023-05-11T11:27:54.017Z,13.70
2023-05-11T11:30:23.026Z,13.50
2023-05-11T11:32:52.308Z,13.40
2023-05-11T11:35:42.543Z,13.30
2023-05-11T11:38:11.308Z,13.40
2023-05-11T11:40:50.703Z,13.50
2023-05-11T11:43:21.220Z,13.50
2023-05-11T11:46:03.727Z,13.60
2023-05-11T11:48:36.360Z,13.80
2023-05-11T11:51:08.630Z,13.90
2023-05-11T11:53:37.280Z,13.80
2023-05-11T11:56:07.565Z,14.00
2023-05-11T11:58:42.979Z,13.90
2023-05-11T12:01:12.347Z,13.70
2023-05-11T12:03:44.577Z,13.40
2023-05-11T12:06:13.205Z,13.20
2023-05-11T12:11:28.294Z,13.00
2023-05-11T12:14:02.051Z,12.90
2023-05-11T12:16:34.269Z,12.90
2023-05-11T12:21:47.901Z,13.00
2023-05-11T12:24:16.552Z,13.10
2023-05-11T12:26:44.517Z,13.30
2023-05-11T12:29:15.234Z,13.40
2023-05-11T12:31:44.043Z,13.70
2023-05-11T12:34:17.014Z,13.80
2023-05-11T12:36:46.922Z,13.90
2023-05-11T12:39:20.226Z,13.90
2023-05-11T12:41:49.775Z,13.80
2023-05-11T12:44:18.434Z,13.90
2023-05-11T12:46:48.344Z,14.00
2023-05-11T12:49:24.618Z,13.90
2023-05-11T12:52:01.542Z,14.00
2023-05-11T12:54:31.751Z,13.90
2023-05-11T12:56:59.370Z,13.90
2023-05-11T12:59:37.801Z,14.00
2023-05-11T13:02:14.806Z,14.20
2023-05-11T13:04:43.337Z,14.40
2023-05-11T13:07:11.580Z,14.60
2023-05-11T13:09:39.497Z,14.80
2023-05-11T13:12:17.465Z,15.10
2023-05-11T13:14:47.782Z,15.20
2023-05-11T13:17:30.176Z,15.10
2023-05-11T13:19:57.671Z,15.30
2023-05-11T13:22:24.495Z,15.50
2023-05-11T13:25:02.040Z,15.60
2023-05-11T13:27:28.842Z,15.70
2023-05-11T13:29:55.706Z,15.90
2023-05-11T13:32:22.726Z,16.00
2023-05-11T13:34:49.622Z,16.10
2023-05-11T13:37:16.533Z,16.30
2023-05-11T13:39:43.397Z,16.60
2023-05-11T13:42:10.485Z,16.60
2023-05-11T13:44:37.354Z,16.70
2023-05-11T13:47:04.417Z,16.70
2023-05-11T13:49:31.401Z,16.60
2023-05-11T13:51:58.225Z,16.60
2023-05-11T13:54:25.332Z,16.90
2023-05-11T13:56:52.101Z,16.80
2023-05-11T13:59:18.924Z,17.10
2023-05-11T14:01:45.993Z,17.30
2023-05-11T14:04:12.837Z,17.20
2023-05-11T14:06:39.739Z,17.40
2023-05-11T14:09:06.771Z,17.50
2023-05-11T14:11:33.744Z,17.40
2023-05-11T14:14:01.005Z,17.30
2023-05-11T14:16:27.981Z,17.40
2023-05-11T14:18:54.814Z,17.50
2023-05-11T14:21:21.658Z,17.70
2023-05-11T14:24:01.989Z,17.80
2023-05-11T14:26:29.188Z,17.90
2023-05-11T14:28:55.969Z,17.60
2023-05-11T14:31:23.239Z,17.80
2023-05-11T14:33:50.103Z,17.40
2023-05-11T14:36:17.051Z,17.20
2023-05-11T14:38:44.057Z,17.00
2023-05-11T14:41:10.932Z,16.90
2023-05-11T14:43:40.295Z,17.20
2023-05-11T14:46:07.291Z,17.10
2023-05-11T14:48:34.198Z,17.20
2023-05-11T14:51:01.103Z,17.50
2023-05-11T14:53:28.003Z,17.40
2023-05-11T14:55:54.859Z,17.00
2023-05-11T14:58:21.678Z,17.10
2023-05-11T15:00:48.655Z,16.80
2023-05-11T15:03:15.726Z,16.80
2023-05-11T15:05:43.913Z,17.00
2023-05-11T15:08:21.722Z,17.00
2023-05-11T15:10:55.853Z,16.90
2023-05-11T15:13:23.398Z,16.70
2023-05-11T15:15:50.697Z,16.80
2023-05-11T15:18:17.582Z,16.80
2023-05-11T15:20:45.279Z,16.60
2023-05-11T15:23:16.718Z,16.30
2023-05-11T15:25:45.377Z,16.30
2023-05-11T15:28:12.569Z,16.20
2023-05-11T15:30:41.749Z,16.00
2023-05-11T15:33:10.086Z,15.80
2023-05-11T15:35:38.141Z,15.70
2023-05-11T15:38:05.553Z,15.40
2023-05-11T15:40:32.591Z,15.40
2023-05-11T15:43:00.231Z,15.20
2023-05-11T15:45:29.567Z,15.20
2023-05-11T15:47:57.508Z,15.10
2023-05-11T15:50:24.679Z,15.10
2023-05-11T15:52:51.611Z,15.00
2023-05-11T15:55:18.434Z,15.00
2023-05-11T15:57:45.468Z,14.90
2023-05-11T16:00:14.077Z,14.60
2023-05-11T16:02:41.962Z,14.70
2023-05-11T16:05:09.283Z,14.70
2023-05-11T16:07:36.182Z,14.50
2023-05-11T16:10:03.425Z,14.30
2023-05-11T16:12:30.513Z,14.30
2023-05-11T16:14:57.585Z,14.30
2023-05-11T16:17:24.637Z,14.70
2023-05-11T16:19:51.714Z,14.10
2023-05-11T16:22:18.466Z,14.10
2023-05-11T16:24:45.354Z,14.00
2023-05-11T16:27:12.121Z,13.90
2023-05-11T16:32:06.446Z,13.70
2023-05-11T16:34:35.257Z,13.60
2023-05-11T16:37:02.158Z,13.60
2023-05-11T16:39:28.889Z,13.40
2023-05-11T16:41:56.026Z,13.40
2023-05-11T16:44:23.535Z,13.40
2023-05-11T16:46:50.659Z,13.30
2023-05-11T16:49:17.578Z,13.40
2023-05-11T16:51:44.427Z,13.10
2023-05-11T16:54:11.539Z,13.30
2023-05-11T16:56:38.561Z,13.20
2023-05-11T16:59:05.598Z,13.10
2023-05-11T17:01:34.316Z,13.10
2023-05-11T17:04:01.431Z,13.10
2023-05-11T17:06:28.512Z,13.00
2023-05-11T17:08:55.428Z,13.00
2023-05-11T17:11:22.729Z,13.00
2023-05-11T17:16:59.006Z,12.90
2023-05-11T17:29:04.100Z,12.50
2023-05-11T17:31:45.982Z,12.50
2023-05-11T20:40:57.375Z,10.70
2023-05-11T20:43:26.291Z,10.70
2023-05-11T20:45:53.957Z,10.70
2023-05-11T20:48:32.495Z,10.70
2023-05-11T20:56:37.397Z,10.70
2023-05-11T20:59:04.587Z,10.70
2023-05-11T21:01:31.537Z,10.70
2023-05-11T21:03:58.441Z,10.70
2023-05-11T21:06:25.248Z,10.60
2023-05-11T21:08:52.066Z,10.60
2023-05-11T21:11:18.892Z,10.60
2023-05-11T21:13:45.772Z,10.60
2023-05-11T21:16:12.585Z,10.60
2023-05-11T21:18:39.487Z,10.60
2023-05-11T21:21:06.599Z,10.50
2023-05-11T21:23:33.390Z,10.50
2023-05-11T21:26:00.267Z,10.50
2023-05-11T21:28:27.395Z,10.50
2023-05-11T21:30:54.774Z,10.50
2023-05-11T21:33:21.551Z,10.60
2023-05-11T21:35:48.515Z,10.50
2023-05-11T21:38:16.929Z,10.50
2023-05-11T21:40:44.447Z,10.50
2023-05-11T21:43:13.876Z,10.40
2023-05-11T21:45:43.899Z,10.40
2023-05-11T21:48:10.662Z,10.40
2023-05-11T21:50:38.225Z,10.40
2023-05-11T21:53:05.557Z,10.40
2023-05-11T21:55:32.391Z,10.30
2023-05-11T21:57:59.418Z,10.30
2023-05-11T22:00:28.238Z,10.30
2023-05-11T22:02:55.120Z,10.30
2023-05-11T22:05:22.088Z,10.30
2023-05-11T22:07:49.032Z,10.30
2023-05-11T22:10:16.246Z,10.30
2023-05-11T22:12:43.624Z,10.30
2023-05-11T22:15:11.339Z,10.20
2023-05-11T22:17:38.449Z,10.20
2023-05-11T22:20:06.572Z,10.20
2023-05-11T22:22:34.095Z,10.20
2023-05-11T22:25:01.121Z,10.20
2023-05-11T22:27:29.817Z,10.20
2023-05-11T22:29:56.683Z,10.20
2023-05-11T22:32:23.653Z,10.20
2023-05-11T22:35:01.546Z,10.20
2023-05-11T22:37:28.659Z,10.20
2023-05-11T22:39:56.072Z,10.20
2023-05-11T22:42:23.355Z,10.30
2023-05-11T22:44:50.258Z,10.20
2023-05-11T22:47:17.143Z,10.20
2023-05-11T22:49:44.325Z,10.20
2023-05-11T22:52:11.207Z,10.20
2023-05-11T22:54:38.801Z,10.20
2023-05-11T22:57:06.389Z,10.20
2023-05-11T22:59:34.608Z,10.20
2023-05-11T23:02:03.356Z,10.20
2023-05-11T23:04:32.367Z,10.20
2023-05-11T23:06:59.807Z,10.10
2023-05-11T23:09:26.824Z,10.20
2023-05-11T23:11:53.885Z,10.20
2023-05-11T23:14:20.912Z,10.10
2023-05-11T23:16:47.722Z,10.10
2023-05-11T23:19:14.570Z,10.10
2023-05-11T23:21:41.457Z,10.10
2023-05-11T23:24:08.249Z,10.10
2023-05-11T23:26:36.135Z,10.10
2023-05-11T23:29:03.562Z,10.00
2023-05-11T23:31:32.266Z,10.00
2023-05-11T23:33:59.461Z,10.10
2023-05-11T23:36:26.580Z,10.00
2023-05-11T23:38:53.791Z,10.00
2023-05-11T23:41:20.654Z,10.10
2023-05-11T23:43:47.483Z,10.00
2023-05-11T23:46:14.671Z,10.00
2023-05-11T23:48:41.437Z,10.00
2023-05-11T23:51:08.202Z,10.00
2023-05-11T23:53:35.030Z,9.90
2023-05-11T23:56:01.822Z,10.00
2023-05-11T23:58:28.652Z,9.90
